Time;durP1;ratioP1;P1;durP2;ratioP2;P2;SDS_P1;SDS_P2;PMS_P1;PMS_P2;Temp;Humidity;BMP_temperature;BMP_pressure;BME280_temperature;BME280_humidity;BME280_pressure;Samples;Min_cycle;Max_cycle;Signal;HPM_P1;HPM_P2
2022/07/31 00:00:20;;;;;;;33.30;31.60;;;19.70;69.60;;;;;;4966857;28;20480;-67
2022/07/31 00:02:47;;;;;;;34.63;32.50;;;19.70;69.80;;;;;;4968481;28;20519;-67
2022/07/31 00:05:14;;;;;;;32.70;31.10;;;19.60;69.90;;;;;;4958503;28;20599;-67
2022/07/31 00:07:41;;;;;;;31.93;30.43;;;19.60;70.00;;;;;;4964239;28;20487;-66
2022/07/31 00:10:09;;;;;;;32.50;30.90;;;19.60;70.20;;;;;;4968026;28;20571;-67
2022/07/31 00:12:36;;;;;;;32.27;30.50;;;19.60;70.60;;;;;;4966690;28;20564;-67
2022/07/31 00:15:05;;;;;;;32.80;31.30;;;19.60;70.20;;;;;;4966508;28;20456;-67
2022/07/31 00:17:32;;;;;;;32.67;30.93;;;19.50;70.10;;;;;;4960728;28;20477;-66
2022/07/31 00:19:59;;;;;;;32.50;31.00;;;19.60;70.20;;;;;;4958077;28;20904;-66
2022/07/31 00:22:26;;;;;;;32.40;30.90;;;19.60;69.90;;;;;;4963959;28;20559;-67
2022/07/31 00:24:53;;;;;;;33.30;31.70;;;19.50;70.10;;;;;;4965447;28;20841;-67
2022/07/31 00:27:22;;;;;;;33.23;31.63;;;19.30;70.40;;;;;;4967077;28;20538;-67
2022/07/31 00:29:49;;;;;;;33.40;31.80;;;19.30;70.80;;;;;;4967402;28;20476;-67
2022/07/31 00:32:16;;;;;;;34.03;32.03;;;19.20;71.20;;;;;;4969426;28;20471;-67
2022/07/31 00:34:43;;;;;;;34.47;32.57;;;19.10;71.50;;;;;;4965455;28;20552;-67
2022/07/31 00:37:10;;;;;;;33.47;31.77;;;19.20;71.40;;;;;;4965192;28;20550;-66
2022/07/31 00:39:37;;;;;;;33.43;31.80;;;19.20;71.60;;;;;;4967467;28;20488;-67
2022/07/31 00:42:05;;;;;;;32.63;31.13;;;19.30;71.40;;;;;;4969808;28;20553;-66
2022/07/31 00:44:33;;;;;;;32.67;31.07;;;19.30;71.00;;;;;;4970062;28;20483;-68
2022/07/31 00:47:00;;;;;;;32.20;30.50;;;19.20;71.20;;;;;;4967092;28;20908;-67
2022/07/31 00:49:27;;;;;;;31.63;29.93;;;19.20;71.70;;;;;;4972917;28;20563;-67
2022/07/31 00:51:54;;;;;;;31.27;29.70;;;19.10;71.40;;;;;;4970737;28;20550;-67
2022/07/31 00:54:21;;;;;;;32.33;30.63;;;19.10;71.50;;;;;;4970243;28;20506;-67
2022/07/31 00:56:47;;;;;;;32.50;30.80;;;19.00;71.70;;;;;;4971456;28;20570;-67
2022/07/31 00:59:14;;;;;;;31.60;30.07;;;19.00;71.90;;;;;;4972956;28;20483;-67
2022/07/31 01:01:43;;;;;;;32.10;30.60;;;19.00;71.90;;;;;;4968548;28;20547;-66
2022/07/31 01:04:11;;;;;;;32.43;30.83;;;19.00;72.10;;;;;;4968405;28;20910;-67
2022/07/31 01:06:38;;;;;;;32.03;30.50;;;19.00;72.30;;;;;;4970544;28;20510;-66
2022/07/31 01:09:05;;;;;;;33.20;31.60;;;19.00;72.10;;;;;;4970372;28;20579;-67
2022/07/31 01:11:41;;;;;;;31.53;30.10;;;19.10;72.20;;;;;;4968816;28;20539;-67
2022/07/31 01:14:09;;;;;;;31.63;30.23;;;19.10;72.00;;;;;;4967920;28;20456;-66
2022/07/31 01:16:39;;;;;;;31.90;30.40;;;19.10;72.30;;;;;;4971103;28;21048;-66
2022/07/31 01:19:15;;;;;;;32.40;30.80;;;19.10;71.60;;;;;;4969229;28;21075;-67
2022/07/31 01:21:49;;;;;;;31.70;30.00;;;19.00;71.30;;;;;;4968868;28;20558;-67
2022/07/31 01:24:35;;;;;;;32.20;30.50;;;19.00;71.50;;;;;;4968261;28;20848;-67
2022/07/31 01:27:06;;;;;;;33.50;31.97;;;18.90;72.20;;;;;;4961895;28;20467;-67
2022/07/31 01:29:40;;;;;;;33.10;31.23;;;18.90;72.60;;;;;;4968873;28;20515;-67
2022/07/31 01:32:10;;;;;;;33.27;31.67;;;18.90;72.20;;;;;;4970635;28;20753;-67
2022/07/31 01:34:43;;;;;;;33.30;31.40;;;18.90;72.20;;;;;;4965555;28;20554;-67
2022/07/31 01:37:14;;;;;;;33.90;32.10;;;18.80;72.70;;;;;;4970145;28;20892;-67
2022/07/31 01:39:46;;;;;;;32.30;30.80;;;18.80;72.80;;;;;;4967943;28;20562;-67
2022/07/31 01:42:16;;;;;;;32.47;30.97;;;18.80;72.60;;;;;;4968285;28;20551;-66
2022/07/31 01:44:49;;;;;;;34.07;32.27;;;18.70;72.80;;;;;;4965542;28;20475;-66
2022/07/31 01:47:19;;;;;;;34.97;33.07;;;18.60;73.40;;;;;;4964920;28;20509;-67
2022/07/31 01:49:48;;;;;;;33.70;32.10;;;18.60;73.60;;;;;;4967807;28;20486;-67
2022/07/31 01:52:16;;;;;;;34.13;32.53;;;18.60;73.60;;;;;;4964927;28;20495;-67
2022/07/31 01:54:45;;;;;;;34.87;33.07;;;18.60;73.40;;;;;;4970840;28;20464;-67
2022/07/31 01:57:12;;;;;;;34.03;32.33;;;18.50;73.80;;;;;;4967885;28;20494;-67
2022/07/31 01:59:41;;;;;;;33.00;31.40;;;18.50;74.20;;;;;;4968727;28;20545;-67
2022/07/31 02:02:09;;;;;;;33.97;32.40;;;18.50;74.30;;;;;;4968495;28;20829;-67
2022/07/31 02:04:37;;;;;;;33.30;31.80;;;18.50;74.10;;;;;;4967138;28;21061;-66
2022/07/31 02:07:05;;;;;;;35.50;33.73;;;18.40;74.10;;;;;;4965210;28;20562;-67
2022/07/31 02:09:34;;;;;;;32.93;31.27;;;18.30;74.50;;;;;;4968786;28;20553;-67
2022/07/31 02:12:01;;;;;;;33.10;31.50;;;18.20;74.90;;;;;;4967493;28;20550;-67
2022/07/31 02:14:28;;;;;;;34.80;32.90;;;18.20;75.20;;;;;;4969815;28;21076;-66
2022/07/31 02:16:56;;;;;;;36.37;34.67;;;18.10;75.20;;;;;;4969442;28;20495;-67
2022/07/31 02:19:25;;;;;;;32.73;31.13;;;18.10;75.10;;;;;;4965963;28;20567;-67
2022/07/31 02:21:52;;;;;;;33.17;31.47;;;18.10;75.40;;;;;;4968424;28;20545;-66
2022/07/31 02:24:19;;;;;;;44.90;42.70;;;18.10;75.80;;;;;;4967569;28;20501;-67
2022/07/31 02:26:47;;;;;;;34.17;32.40;;;18.00;75.80;;;;;;4969467;28;20554;-66
2022/07/31 02:29:16;;;;;;;32.90;31.30;;;18.00;76.10;;;;;;4970138;28;20826;-67
2022/07/31 02:31:44;;;;;;;32.57;30.87;;;18.00;76.00;;;;;;4967559;28;20861;-66
2022/07/31 02:34:13;;;;;;;35.27;33.57;;;18.10;75.70;;;;;;4962429;28;20487;-66
2022/07/31 02:36:42;;;;;;;33.43;31.83;;;18.00;75.80;;;;;;4967802;28;20546;-67
2022/07/31 02:39:11;;;;;;;32.77;31.10;;;18.00;76.10;;;;;;4966877;28;20489;-67
2022/07/31 02:41:39;;;;;;;34.23;32.63;;;17.90;76.20;;;;;;4969342;28;20830;-67
2022/07/31 02:44:06;;;;;;;34.40;32.33;;;18.00;75.90;;;;;;4967896;28;20531;-66
2022/07/31 02:46:33;;;;;;;37.33;35.50;;;18.10;75.40;;;;;;4968417;28;20543;-66
2022/07/31 02:49:00;;;;;;;35.23;33.43;;;18.10;75.40;;;;;;4968808;28;20515;-66
2022/07/31 02:51:28;;;;;;;33.53;32.00;;;18.10;75.50;;;;;;4967304;28;20909;-66
2022/07/31 02:53:56;;;;;;;33.97;32.27;;;18.10;75.40;;;;;;4967506;28;20463;-66
2022/07/31 02:56:24;;;;;;;36.43;34.60;;;18.10;75.50;;;;;;4968623;28;20534;-67
2022/07/31 02:58:51;;;;;;;36.23;34.53;;;18.10;75.30;;;;;;4970857;28;20550;-67
2022/07/31 03:01:18;;;;;;;36.77;34.70;;;18.10;75.30;;;;;;4965223;28;20459;-67
2022/07/31 03:03:45;;;;;;;34.43;32.73;;;18.10;75.10;;;;;;4967601;28;20459;-66
2022/07/31 03:06:13;;;;;;;33.87;32.17;;;18.10;75.10;;;;;;4968110;28;20834;-67
2022/07/31 03:08:40;;;;;;;33.60;32.10;;;18.10;75.10;;;;;;4966419;28;20475;-67
2022/07/31 03:11:08;;;;;;;34.13;32.47;;;18.10;75.00;;;;;;4967680;28;20546;-67
2022/07/31 03:13:37;;;;;;;33.90;32.30;;;18.20;75.10;;;;;;4967219;28;21228;-68
2022/07/31 03:16:05;;;;;;;34.70;33.10;;;18.10;75.10;;;;;;4964193;28;22358;-69
2022/07/31 03:18:33;;;;;;;33.83;32.13;;;18.10;75.40;;;;;;4967633;28;20469;-68
2022/07/31 03:21:01;;;;;;;34.30;32.43;;;18.10;75.70;;;;;;4966762;28;20471;-68
2022/07/31 03:23:34;;;;;;;34.53;32.83;;;18.10;75.90;;;;;;4968673;28;20563;-68
2022/07/31 03:26:02;;;;;;;34.37;32.70;;;18.10;75.60;;;;;;4967587;28;20493;-68
2022/07/31 03:28:30;;;;;;;34.20;32.50;;;17.90;76.00;;;;;;4970045;28;20545;-68
2022/07/31 03:30:57;;;;;;;32.97;31.07;;;17.90;76.40;;;;;;4968472;28;20570;-68
2022/07/31 03:33:24;;;;;;;31.73;30.30;;;17.80;76.60;;;;;;4966148;28;20574;-68
2022/07/31 03:35:52;;;;;;;32.80;31.30;;;17.80;76.10;;;;;;4967160;28;20455;-69
2022/07/31 03:38:19;;;;;;;32.73;31.13;;;17.70;76.10;;;;;;4964064;28;20459;-69
2022/07/31 03:40:45;;;;;;;33.63;31.93;;;17.70;76.20;;;;;;4967004;28;20558;-68
2022/07/31 03:43:14;;;;;;;33.17;31.67;;;17.60;76.70;;;;;;4969348;28;20826;-68
2022/07/31 03:45:44;;;;;;;36.30;34.40;;;17.60;76.80;;;;;;4965458;28;20577;-70
2022/07/31 03:48:11;;;;;;;36.50;34.80;;;17.50;77.30;;;;;;4967831;28;20472;-68
2022/07/31 03:50:40;;;;;;;35.90;34.20;;;17.40;77.50;;;;;;4966894;28;20557;-69
2022/07/31 03:53:07;;;;;;;35.00;33.30;;;17.40;77.80;;;;;;4966704;28;20461;-69
2022/07/31 03:55:37;;;;;;;34.63;33.03;;;17.40;78.00;;;;;;4968248;28;20550;-68
2022/07/31 03:58:05;;;;;;;36.73;34.90;;;17.40;78.20;;;;;;4966612;28;20455;-68
2022/07/31 04:00:33;;;;;;;34.10;32.50;;;17.40;78.20;;;;;;4964154;28;20566;-68
2022/07/31 04:03:06;;;;;;;35.10;33.30;;;17.40;78.20;;;;;;4968832;28;20509;-68
2022/07/31 04:05:33;;;;;;;34.43;32.60;;;17.50;78.00;;;;;;4968211;28;21059;-68
2022/07/31 04:08:00;;;;;;;33.43;31.63;;;17.50;77.90;;;;;;4964792;28;20657;-68
2022/07/31 04:10:27;;;;;;;34.07;32.50;;;17.50;78.00;;;;;;4966830;28;20566;-69
2022/07/31 04:12:55;;;;;;;36.13;34.43;;;17.40;78.10;;;;;;4965891;28;20474;-68
2022/07/31 04:15:22;;;;;;;34.87;33.27;;;17.40;78.20;;;;;;4967644;28;20459;-68
2022/07/31 04:17:49;;;;;;;35.17;33.37;;;17.30;78.50;;;;;;4966293;28;20507;-68
2022/07/31 04:20:18;;;;;;;33.00;31.50;;;17.30;78.40;;;;;;4966787;28;20566;-69
2022/07/31 04:22:45;;;;;;;33.80;32.20;;;17.30;78.40;;;;;;4964300;28;20467;-70
2022/07/31 04:25:12;;;;;;;34.70;33.10;;;17.30;78.40;;;;;;4961568;28;20486;-68
2022/07/31 04:27:39;;;;;;;34.97;33.23;;;17.30;78.40;;;;;;4963971;28;20574;-69
2022/07/31 04:30:08;;;;;;;33.17;31.63;;;17.40;78.40;;;;;;4965558;28;20561;-68
2022/07/31 04:32:36;;;;;;;55.50;52.53;;;17.50;77.90;;;;;;4966940;28;20466;-68
2022/07/31 04:35:04;;;;;;;36.10;34.30;;;17.50;77.70;;;;;;4962123;28;20554;-68
2022/07/31 04:37:33;;;;;;;33.83;32.23;;;17.50;77.80;;;;;;4961824;28;20992;-68
2022/07/31 04:40:00;;;;;;;37.00;35.27;;;17.50;77.50;;;;;;4960792;28;20569;-68
2022/07/31 04:42:27;;;;;;;32.77;31.23;;;17.60;77.40;;;;;;4960930;28;20949;-68
2022/07/31 04:44:54;;;;;;;33.03;31.43;;;17.80;77.30;;;;;;4966432;28;20579;-68
2022/07/31 04:47:21;;;;;;;33.80;32.20;;;18.00;76.90;;;;;;4968471;28;20477;-68
2022/07/31 04:49:48;;;;;;;33.07;31.47;;;18.30;75.90;;;;;;4963039;28;20489;-69
2022/07/31 04:52:15;;;;;;;33.80;32.00;;;18.50;75.00;;;;;;4968671;28;20862;-69
2022/07/31 04:54:43;;;;;;;33.30;31.70;;;18.60;74.70;;;;;;4965670;28;20518;-68
2022/07/31 04:57:10;;;;;;;35.60;33.90;;;18.70;74.40;;;;;;4968057;28;20542;-68
2022/07/31 04:59:37;;;;;;;35.33;33.70;;;18.90;73.40;;;;;;4964908;28;20482;-71
2022/07/31 05:02:04;;;;;;;35.53;33.90;;;19.00;72.80;;;;;;4966789;28;21024;-71
2022/07/31 05:04:31;;;;;;;35.87;34.17;;;19.00;72.50;;;;;;4963350;28;20542;-71
2022/07/31 05:06:58;;;;;;;32.60;31.00;;;19.00;72.60;;;;;;4967982;28;22727;-71
2022/07/31 05:09:28;;;;;;;33.77;32.13;;;18.90;72.80;;;;;;4963742;28;20561;-74
2022/07/31 05:11:57;;;;;;;34.40;32.70;;;18.90;72.80;;;;;;4968203;28;20493;-71
2022/07/31 05:14:24;;;;;;;34.17;32.17;;;19.10;72.60;;;;;;4964669;28;20560;-71
2022/07/31 05:16:51;;;;;;;32.87;31.33;;;19.30;72.60;;;;;;4966990;28;20475;-75
2022/07/31 05:19:18;;;;;;;31.80;30.27;;;19.60;72.00;;;;;;4961209;28;20582;-72
2022/07/31 05:21:45;;;;;;;34.27;32.57;;;19.80;71.30;;;;;;4959151;28;20471;-73
2022/07/31 05:24:12;;;;;;;33.70;32.10;;;20.00;70.50;;;;;;4960599;28;20593;-73
2022/07/31 05:26:39;;;;;;;36.13;34.33;;;20.20;69.90;;;;;;4961404;28;20488;-74
2022/07/31 05:29:07;;;;;;;34.30;32.50;;;20.40;69.20;;;;;;4963299;28;20571;-73
2022/07/31 05:31:34;;;;;;;36.13;34.23;;;20.60;68.50;;;;;;4966568;28;20564;-76
2022/07/31 05:34:01;;;;;;;32.13;30.37;;;20.50;68.70;;;;;;4964412;28;20455;-74
2022/07/31 05:36:28;;;;;;;33.17;31.47;;;20.60;68.60;;;;;;4970740;28;20553;-73
2022/07/31 05:38:55;;;;;;;40.77;38.73;;;20.70;68.40;;;;;;4965171;28;20475;-75
2022/07/31 05:41:22;;;;;;;37.97;36.00;;;20.70;68.20;;;;;;4964753;28;20555;-75
2022/07/31 05:43:49;;;;;;;33.80;32.20;;;20.90;67.90;;;;;;4969742;28;20457;-74
2022/07/31 05:46:18;;;;;;;35.40;33.80;;;21.00;67.40;;;;;;4969186;28;20484;-71
2022/07/31 05:48:45;;;;;;;32.90;31.40;;;21.10;67.40;;;;;;4966509;28;20570;-71
2022/07/31 05:51:13;;;;;;;34.20;32.60;;;21.10;67.20;;;;;;4968825;28;20822;-71
2022/07/31 05:53:41;;;;;;;35.03;33.43;;;21.30;66.90;;;;;;4967966;28;21316;-71
2022/07/31 05:56:08;;;;;;;40.60;38.60;;;21.50;66.40;;;;;;4964688;28;20464;-71
2022/07/31 05:58:35;;;;;;;33.30;31.70;;;21.70;65.90;;;;;;4961599;28;20486;-72
2022/07/31 06:01:03;;;;;;;34.67;33.07;;;21.70;65.80;;;;;;4976009;28;20554;-72
2022/07/31 06:03:34;;;;;;;38.07;36.17;;;22.00;65.30;;;;;;4968278;28;20548;-71
2022/07/31 06:06:03;;;;;;;32.57;30.97;;;22.20;64.70;;;;;;4968867;28;20508;-71
2022/07/31 06:08:30;;;;;;;35.47;33.07;;;22.30;64.20;;;;;;4970208;28;20465;-73
2022/07/31 06:10:58;;;;;;;35.87;34.17;;;22.30;64.20;;;;;;4969592;28;20493;-73
2022/07/31 06:13:26;;;;;;;38.30;36.30;;;22.40;64.10;;;;;;4971697;28;20466;-72
2022/07/31 06:15:54;;;;;;;33.43;31.83;;;22.50;63.80;;;;;;4966000;28;20464;-74
2022/07/31 06:18:22;;;;;;;38.17;36.23;;;22.50;63.70;;;;;;4969089;28;20461;-73
2022/07/31 06:20:50;;;;;;;33.43;31.73;;;22.50;63.80;;;;;;4965565;28;20566;-74
2022/07/31 06:23:17;;;;;;;33.13;31.43;;;22.60;63.50;;;;;;4968296;28;20996;-71
2022/07/31 06:25:44;;;;;;;36.00;34.30;;;22.80;63.40;;;;;;4967861;28;20486;-71
2022/07/31 06:28:11;;;;;;;43.23;41.13;;;22.80;63.30;;;;;;4971792;28;20458;-70
2022/07/31 06:30:38;;;;;;;35.73;34.07;;;22.80;63.40;;;;;;4969287;28;21061;-72
2022/07/31 06:33:05;;;;;;;34.40;32.70;;;22.90;63.10;;;;;;4974560;28;20554;-70
2022/07/31 06:35:32;;;;;;;36.00;34.30;;;23.00;63.00;;;;;;4965254;28;20541;-70
2022/07/31 06:38:00;;;;;;;33.13;31.53;;;23.20;62.50;;;;;;4967593;28;20619;-71
2022/07/31 06:40:27;;;;;;;44.30;41.90;;;23.30;62.10;;;;;;4968398;28;20508;-70
2022/07/31 06:42:54;;;;;;;36.03;34.13;;;23.40;61.90;;;;;;4962300;28;21069;-71
2022/07/31 06:45:21;;;;;;;41.20;39.03;;;23.40;62.20;;;;;;4968143;28;20538;-71
2022/07/31 06:47:48;;;;;;;35.70;33.80;;;23.50;62.20;;;;;;4968593;28;20567;-70
2022/07/31 06:50:15;;;;;;;34.80;33.00;;;23.50;62.20;;;;;;4969533;28;20475;-71
2022/07/31 06:52:42;;;;;;;34.70;32.90;;;23.60;61.90;;;;;;4969951;28;20542;-71
2022/07/31 06:55:11;;;;;;;37.20;35.27;;;23.70;61.60;;;;;;4970751;28;20984;-75
2022/07/31 06:57:38;;;;;;;37.23;35.27;;;23.80;61.90;;;;;;4969526;28;20949;-73
2022/07/31 07:00:08;;;;;;;54.93;52.17;;;23.90;61.50;;;;;;4966148;28;20479;-74
2022/07/31 07:02:36;;;;;;;33.50;31.90;;;24.00;61.30;;;;;;4971235;28;20462;-71
2022/07/31 07:05:03;;;;;;;34.83;33.13;;;24.30;60.40;;;;;;4962533;28;20515;-70
2022/07/31 07:07:30;;;;;;;34.07;32.47;;;24.30;60.10;;;;;;4964453;28;20513;-69
2022/07/31 07:09:57;;;;;;;35.70;33.80;;;24.40;59.70;;;;;;4962262;28;20563;-69
2022/07/31 07:12:25;;;;;;;33.00;31.30;;;24.60;58.70;;;;;;4964179;28;21019;-68
2022/07/31 07:14:52;;;;;;;33.10;31.50;;;24.70;58.60;;;;;;4967934;28;20985;-68
2022/07/31 07:17:19;;;;;;;37.67;35.83;;;24.80;58.20;;;;;;4968407;28;20560;-68
2022/07/31 07:19:47;;;;;;;35.87;33.87;;;25.00;57.50;;;;;;4965801;28;20514;-68
2022/07/31 07:22:14;;;;;;;33.23;31.53;;;25.10;57.10;;;;;;4959656;28;20585;-68
2022/07/31 07:24:41;;;;;;;33.37;31.77;;;25.30;57.10;;;;;;4965028;28;20556;-68
2022/07/31 07:27:08;;;;;;;35.10;32.93;;;25.50;56.30;;;;;;4961889;28;20485;-68
2022/07/31 07:29:37;;;;;;;33.30;31.43;;;25.70;56.30;;;;;;4964823;28;20513;-70
2022/07/31 07:32:04;;;;;;;39.90;37.40;;;25.70;56.40;;;;;;4957806;28;21129;-70
2022/07/31 07:34:31;;;;;;;34.73;32.90;;;25.90;56.30;;;;;;4968177;28;20546;-71
2022/07/31 07:36:59;;;;;;;37.00;35.10;;;26.10;55.30;;;;;;4969132;28;20814;-71
2022/07/31 07:39:26;;;;;;;33.10;31.40;;;26.30;54.80;;;;;;4966900;28;20501;-70
2022/07/31 07:41:53;;;;;;;35.33;33.53;;;26.40;54.10;;;;;;4968344;28;20455;-70
2022/07/31 07:44:20;;;;;;;40.33;37.93;;;26.50;54.10;;;;;;4968031;28;20542;-71
2022/07/31 07:46:48;;;;;;;35.47;33.43;;;26.60;53.70;;;;;;4970874;28;20832;-70
2022/07/31 07:49:15;;;;;;;32.87;31.23;;;26.70;53.40;;;;;;4964338;28;20518;-70
2022/07/31 07:51:42;;;;;;;41.17;39.07;;;26.70;53.10;;;;;;4965667;28;20953;-71
2022/07/31 07:54:09;;;;;;;32.43;30.63;;;26.90;52.40;;;;;;4961142;28;20490;-71
2022/07/31 07:56:36;;;;;;;34.13;32.33;;;27.10;52.20;;;;;;4966663;28;20550;-71
2022/07/31 07:59:03;;;;;;;34.90;33.10;;;26.80;52.80;;;;;;4965707;28;20476;-70
2022/07/31 08:01:30;;;;;;;43.30;41.10;;;26.50;53.70;;;;;;4956753;28;21032;-71
2022/07/31 08:03:58;;;;;;;36.60;34.67;;;26.30;54.30;;;;;;4968073;28;20521;-70
2022/07/31 08:06:25;;;;;;;34.03;32.33;;;26.20;54.90;;;;;;4966204;28;20514;-68
2022/07/31 08:08:52;;;;;;;34.13;32.30;;;26.20;55.20;;;;;;4968050;28;20893;-68
2022/07/31 08:11:19;;;;;;;41.07;38.77;;;26.30;55.10;;;;;;4965104;28;20549;-68
2022/07/31 08:13:46;;;;;;;32.77;30.97;;;26.50;54.60;;;;;;4968504;28;20455;-68
2022/07/31 08:16:14;;;;;;;36.00;33.70;;;26.80;54.10;;;;;;4962802;28;20537;-68
2022/07/31 08:18:40;;;;;;;39.00;36.70;;;26.60;54.40;;;;;;4962101;28;20463;-68
2022/07/31 08:21:09;;;;;;;34.70;32.90;;;26.80;54.10;;;;;;4964208;28;21834;-68
2022/07/31 08:23:36;;;;;;;37.43;35.53;;;26.90;54.00;;;;;;4966339;28;20459;-68
2022/07/31 08:26:04;;;;;;;42.40;40.10;;;26.90;54.30;;;;;;4960690;28;20546;-68
2022/07/31 08:28:31;;;;;;;41.07;38.87;;;26.70;54.50;;;;;;4965891;28;20466;-68
2022/07/31 08:30:58;;;;;;;36.23;34.43;;;26.70;54.40;;;;;;4967118;28;20918;-68
2022/07/31 08:33:25;;;;;;;53.90;50.90;;;26.40;55.50;;;;;;4967680;28;20549;-68
2022/07/31 08:35:52;;;;;;;34.70;33.00;;;26.20;56.10;;;;;;4961896;28;20481;-68
2022/07/31 08:38:20;;;;;;;41.47;39.30;;;26.10;56.60;;;;;;4967598;28;20983;-68
2022/07/31 08:40:47;;;;;;;33.90;32.20;;;26.10;56.70;;;;;;4966169;28;20489;-68
2022/07/31 08:43:14;;;;;;;34.87;33.07;;;26.10;56.80;;;;;;4966103;28;20556;-68
2022/07/31 08:45:42;;;;;;;35.27;33.57;;;26.10;57.10;;;;;;4968138;28;20553;-68
2022/07/31 08:48:10;;;;;;;40.10;38.10;;;26.20;56.70;;;;;;4968128;28;20506;-68
2022/07/31 08:50:40;;;;;;;34.40;32.43;;;26.10;56.60;;;;;;4965414;28;20577;-68
2022/07/31 08:53:09;;;;;;;46.83;44.23;;;26.00;57.00;;;;;;4966980;28;20541;-68
2022/07/31 08:55:37;;;;;;;35.67;33.90;;;26.20;56.40;;;;;;4966050;28;20589;-68
2022/07/31 08:58:05;;;;;;;34.20;32.20;;;26.20;56.30;;;;;;4968342;28;20538;-68
2022/07/31 09:00:33;;;;;;;32.60;30.90;;;26.20;56.20;;;;;;4964007;28;20510;-68
2022/07/31 09:03:00;;;;;;;35.00;33.30;;;26.50;55.80;;;;;;4967149;28;20463;-68
2022/07/31 09:05:27;;;;;;;47.20;44.70;;;26.60;55.50;;;;;;4973705;28;20461;-68
2022/07/31 09:07:54;;;;;;;33.00;31.40;;;26.40;55.20;;;;;;4965050;28;21077;-68
2022/07/31 09:10:23;;;;;;;32.93;31.17;;;26.50;54.20;;;;;;4967929;28;20573;-69
2022/07/31 09:12:52;;;;;;;32.90;31.20;;;26.60;52.60;;;;;;4971289;28;20493;-68
2022/07/31 09:15:24;;;;;;;32.50;30.70;;;26.80;52.60;;;;;;4965984;28;20554;-68
2022/07/31 09:17:51;;;;;;;39.03;37.20;;;27.00;51.70;;;;;;4970134;28;20555;-68
2022/07/31 09:20:21;;;;;;;43.00;40.70;;;27.30;51.20;;;;;;4970027;28;20478;-68
2022/07/31 09:22:52;;;;;;;41.43;39.23;;;27.20;51.10;;;;;;4970732;28;20837;-68
2022/07/31 09:25:19;;;;;;;33.07;31.40;;;27.30;50.50;;;;;;4966195;28;20462;-68
2022/07/31 09:27:47;;;;;;;31.60;29.80;;;27.50;49.90;;;;;;4971764;28;20478;-68
2022/07/31 09:30:16;;;;;;;31.83;30.13;;;27.60;49.90;;;;;;4968259;28;20545;-71
2022/07/31 09:32:44;;;;;;;42.00;39.70;;;27.70;49.40;;;;;;4968535;28;20546;-71
2022/07/31 09:35:14;;;;;;;37.77;35.57;;;27.70;49.20;;;;;;4965396;28;20516;-70
2022/07/31 09:37:41;;;;;;;30.87;29.30;;;27.70;48.80;;;;;;4969528;28;21209;-71
2022/07/31 09:40:09;;;;;;;31.83;30.20;;;27.60;49.10;;;;;;4966718;28;21196;-70
2022/07/31 09:42:41;;;;;;;31.43;29.83;;;27.80;48.50;;;;;;4968318;28;20825;-71
2022/07/31 09:45:24;;;;;;;31.83;30.23;;;28.10;48.50;;;;;;4971008;28;20562;-70
2022/07/31 09:48:03;;;;;;;35.23;33.00;;;28.40;48.20;;;;;;4969201;28;20471;-76
2022/07/31 09:50:30;;;;;;;41.60;39.30;;;28.60;47.60;;;;;;4968439;28;20578;-70
2022/07/31 09:52:59;;;;;;;30.67;29.00;;;28.80;46.80;;;;;;4968908;28;20469;-71
2022/07/31 09:55:27;;;;;;;32.40;30.80;;;29.20;46.70;;;;;;4966142;28;20462;-70
2022/07/31 09:57:55;;;;;;;31.80;30.10;;;29.40;46.50;;;;;;4970746;28;20487;-71
2022/07/31 10:00:24;;;;;;;37.70;35.70;;;29.70;45.60;;;;;;4965178;28;20479;-70
2022/07/31 10:02:53;;;;;;;38.80;36.80;;;29.70;44.80;;;;;;4966035;28;20465;-72
2022/07/31 10:05:23;;;;;;;40.23;38.13;;;29.80;45.00;;;;;;4960310;28;20527;-71
2022/07/31 10:07:51;;;;;;;38.50;36.50;;;29.80;44.50;;;;;;4970186;28;20517;-70
2022/07/31 10:10:18;;;;;;;32.13;30.40;;;29.80;44.50;;;;;;4965782;28;20490;-71
2022/07/31 10:12:49;;;;;;;41.87;39.77;;;29.90;44.70;;;;;;4968152;28;20459;-70
2022/07/31 10:15:19;;;;;;;32.80;31.20;;;29.80;44.20;;;;;;4970122;28;20946;-71
2022/07/31 10:17:50;;;;;;;40.80;38.70;;;29.70;43.80;;;;;;4978542;28;20873;-70
2022/07/31 10:20:20;;;;;;;33.80;32.10;;;29.70;43.20;;;;;;4964437;28;20475;-71
2022/07/31 10:22:49;;;;;;;37.47;35.57;;;29.60;43.70;;;;;;4968228;28;20513;-70
2022/07/31 10:25:20;;;;;;;33.70;31.63;;;29.50;44.20;;;;;;4966836;28;20470;-71
2022/07/31 10:27:48;;;;;;;42.10;40.00;;;29.60;44.90;;;;;;4967134;28;20490;-71
2022/07/31 10:30:16;;;;;;;32.37;30.57;;;29.60;44.60;;;;;;4967066;28;20521;-71
2022/07/31 10:32:44;;;;;;;36.97;35.07;;;29.70;44.50;;;;;;4970126;28;20554;-72
2022/07/31 10:35:12;;;;;;;30.60;29.10;;;29.80;44.20;;;;;;4968832;28;20561;-72
2022/07/31 10:37:45;;;;;;;37.07;35.07;;;29.80;44.40;;;;;;4970480;28;20467;-72
2022/07/31 10:40:23;;;;;;;31.27;29.77;;;29.90;44.70;;;;;;4967233;28;20586;-71
2022/07/31 10:43:00;;;;;;;32.30;30.60;;;30.00;44.60;;;;;;4970603;28;20850;-72
2022/07/31 10:45:30;;;;;;;40.37;38.27;;;30.30;44.10;;;;;;4974063;28;20470;-71
2022/07/31 10:47:58;;;;;;;32.10;30.50;;;30.50;43.40;;;;;;4964070;28;20898;-70
2022/07/31 10:50:29;;;;;;;35.63;33.73;;;30.70;43.10;;;;;;4965030;28;20494;-69
2022/07/31 10:53:06;;;;;;;30.50;28.90;;;30.80;42.70;;;;;;4969855;28;20748;-69
2022/07/31 10:55:34;;;;;;;33.43;31.53;;;30.90;42.20;;;;;;4968303;28;21014;-70
2022/07/31 10:58:07;;;;;;;31.13;29.50;;;30.90;41.60;;;;;;4969975;28;20956;-69
2022/07/31 11:00:35;;;;;;;40.47;38.17;;;30.80;41.30;;;;;;4968131;28;20494;-69
2022/07/31 11:03:13;;;;;;;46.53;44.13;;;30.60;41.60;;;;;;4970203;28;20551;-70
2022/07/31 11:05:53;;;;;;;36.63;34.73;;;30.60;41.80;;;;;;4962998;28;20565;-69
2022/07/31 11:08:20;;;;;;;30.80;29.20;;;30.70;42.30;;;;;;4967677;28;20510;-67
2022/07/31 11:10:50;;;;;;;34.40;32.70;;;30.80;42.60;;;;;;4967259;28;20985;-67
2022/07/31 11:13:17;;;;;;;36.43;34.53;;;31.00;43.20;;;;;;4967603;28;20471;-68
2022/07/31 11:15:44;;;;;;;35.07;33.30;;;31.00;43.80;;;;;;4961347;28;20494;-68
2022/07/31 11:18:12;;;;;;;35.63;33.80;;;30.90;44.10;;;;;;4968591;28;20538;-68
2022/07/31 11:20:45;;;;;;;45.77;43.30;;;30.90;44.30;;;;;;4967923;28;20507;-68
2022/07/31 11:23:14;;;;;;;40.47;38.47;;;30.90;43.70;;;;;;4964498;28;20451;-68
2022/07/31 11:25:41;;;;;;;35.70;33.70;;;31.20;43.80;;;;;;4966816;28;20467;-68
2022/07/31 11:28:13;;;;;;;36.63;34.73;;;31.10;43.20;;;;;;4970583;28;20570;-69
2022/07/31 11:30:51;;;;;;;52.87;50.47;;;30.70;43.80;;;;;;4967196;28;20491;-70
2022/07/31 11:33:31;;;;;;;39.63;37.53;;;30.80;43.10;;;;;;4970654;28;20462;-69
2022/07/31 11:36:06;;;;;;;32.00;30.23;;;30.90;42.60;;;;;;4962176;28;20481;-70
2022/07/31 11:38:33;;;;;;;32.23;30.60;;;31.10;41.50;;;;;;4969537;28;20549;-70
2022/07/31 11:41:00;;;;;;;38.90;36.87;;;31.20;41.70;;;;;;4965781;28;20512;-69
2022/07/31 11:43:27;;;;;;;38.63;36.63;;;31.10;41.80;;;;;;4969049;28;20459;-69
2022/07/31 11:45:55;;;;;;;46.53;44.00;;;31.00;42.40;;;;;;4966837;28;20463;-70
2022/07/31 11:48:23;;;;;;;34.50;32.57;;;31.10;42.90;;;;;;4968849;28;20605;-70
2022/07/31 11:50:50;;;;;;;34.93;32.97;;;31.20;42.70;;;;;;4969637;28;20482;-70
2022/07/31 11:53:20;;;;;;;34.50;32.80;;;31.30;42.90;;;;;;4968533;28;20467;-70
2022/07/31 11:55:49;;;;;;;35.37;33.53;;;31.40;42.20;;;;;;4969602;28;20616;-70
2022/07/31 11:58:16;;;;;;;31.97;30.47;;;31.50;41.90;;;;;;4969409;28;20451;-70
2022/07/31 12:00:51;;;;;;;35.27;33.20;;;31.80;41.90;;;;;;4967390;28;21008;-71
2022/07/31 12:03:19;;;;;;;37.33;35.37;;;32.00;41.70;;;;;;4967609;28;20463;-71
2022/07/31 12:05:48;;;;;;;36.10;34.23;;;32.10;41.30;;;;;;4962577;28;20459;-69
2022/07/31 12:08:16;;;;;;;44.93;42.13;;;32.20;40.60;;;;;;4969012;28;20597;-69
2022/07/31 12:10:45;;;;;;;38.90;36.97;;;32.20;40.40;;;;;;4966669;28;20482;-70
2022/07/31 12:13:14;;;;;;;43.30;41.00;;;32.10;40.40;;;;;;4966277;28;20470;-70
2022/07/31 12:15:41;;;;;;;39.30;37.30;;;32.00;40.90;;;;;;4967572;28;20467;-70
2022/07/31 12:18:08;;;;;;;35.73;34.00;;;32.10;41.20;;;;;;4966807;28;20461;-70
2022/07/31 12:20:35;;;;;;;45.13;42.80;;;32.00;40.60;;;;;;4965056;28;20482;-70
2022/07/31 12:23:03;;;;;;;45.57;43.43;;;32.00;40.50;;;;;;4968808;28;20476;-70
2022/07/31 12:25:40;;;;;;;37.53;35.63;;;32.10;40.80;;;;;;4967488;28;20865;-68
2022/07/31 12:28:09;;;;;;;31.80;30.27;;;32.30;40.90;;;;;;4966533;28;20482;-68
2022/07/31 12:30:37;;;;;;;40.27;38.07;;;32.50;40.50;;;;;;4965045;28;20988;-68
2022/07/31 12:33:06;;;;;;;34.20;32.50;;;32.70;40.50;;;;;;4963643;28;20477;-68